createdAt,value
2019-01-12T00:00:26.056Z,4.54
2019-01-12T00:01:27.320Z,4.48
2019-01-12T00:02:26.434Z,4.48
2019-01-12T00:03:26.618Z,4.47
2019-01-12T00:04:26.798Z,4.54
2019-01-12T00:05:26.997Z,4.55
2019-01-12T00:06:27.171Z,4.44
2019-01-12T00:07:27.347Z,4.47
2019-01-12T00:08:27.525Z,4.44
2019-01-12T00:09:27.716Z,4.36
2019-01-12T00:10:27.897Z,4.42
2019-01-12T00:11:28.077Z,4.40
2019-01-12T00:12:28.274Z,4.44
2019-01-12T00:13:28.447Z,4.47
2019-01-12T00:14:28.626Z,4.47
2019-01-12T00:15:28.811Z,4.47
2019-01-12T00:16:28.991Z,4.48
2019-01-12T00:17:29.163Z,4.51
2019-01-12T00:18:29.354Z,4.48
2019-01-12T00:19:29.533Z,4.48
2019-01-12T00:20:29.739Z,4.48
2019-01-12T00:21:29.915Z,4.51
2019-01-12T00:22:30.096Z,4.50
2019-01-12T00:23:30.279Z,4.40
2019-01-12T00:24:31.737Z,4.37
2019-01-12T00:25:30.634Z,4.47
2019-01-12T00:26:30.804Z,4.44
2019-01-12T00:27:30.987Z,4.47
2019-01-12T00:28:31.170Z,4.55
2019-01-12T00:29:31.336Z,4.44
2019-01-12T00:30:31.518Z,4.48
2019-01-12T00:31:31.690Z,4.45
2019-01-12T00:32:31.881Z,4.45
2019-01-12T00:33:32.066Z,4.50
2019-01-12T00:34:32.247Z,4.60
2019-01-12T00:35:32.460Z,4.51
2019-01-12T00:36:32.611Z,4.63
2019-01-12T00:37:32.791Z,4.66
2019-01-12T00:38:32.972Z,4.69
2019-01-12T00:39:33.144Z,4.63
2019-01-12T00:40:33.332Z,4.69
2019-01-12T00:41:33.525Z,4.75
2019-01-12T00:42:33.711Z,4.66
2019-01-12T00:43:33.897Z,4.72
2019-01-12T00:44:34.081Z,4.65
2019-01-12T00:45:34.281Z,4.69
2019-01-12T00:46:34.462Z,4.69
2019-01-12T00:47:34.657Z,4.80
2019-01-12T00:48:34.837Z,4.65
2019-01-12T00:49:35.012Z,4.72
2019-01-12T00:50:35.202Z,4.82
2019-01-12T00:51:35.396Z,4.78
2019-01-12T00:52:35.576Z,4.77
2019-01-12T00:53:35.757Z,4.82
2019-01-12T00:54:38.580Z,4.84
2019-01-12T00:55:36.142Z,4.84
2019-01-12T00:56:36.291Z,4.88
2019-01-12T00:57:36.475Z,4.91
2019-01-12T00:58:36.646Z,4.89
2019-01-12T00:59:36.841Z,4.86
2019-01-12T01:00:37.011Z,4.94
2019-01-12T01:01:37.201Z,4.92
2019-01-12T01:02:37.382Z,4.99
2019-01-12T01:03:37.557Z,4.92
2019-01-12T01:04:37.741Z,4.96
2019-01-12T01:05:37.921Z,4.89
2019-01-12T01:06:38.095Z,4.97
2019-01-12T01:07:38.280Z,4.91
2019-01-12T01:08:38.467Z,4.91
2019-01-12T01:09:38.646Z,5.00
2019-01-12T01:10:38.831Z,5.02
2019-01-12T01:11:39.037Z,4.92
2019-01-12T01:12:39.172Z,4.96
2019-01-12T01:13:39.361Z,4.91
2019-01-12T01:14:39.538Z,4.94
2019-01-12T01:15:39.733Z,4.86
2019-01-12T01:16:39.917Z,4.85
2019-01-12T01:17:40.097Z,4.91
2019-01-12T01:18:40.276Z,4.88
2019-01-12T01:19:40.451Z,4.89
2019-01-12T01:20:40.626Z,4.94
2019-01-12T01:21:40.821Z,4.91
2019-01-12T01:22:41.047Z,4.89
2019-01-12T01:23:41.183Z,4.96
2019-01-12T01:24:45.738Z,4.85
2019-01-12T01:25:41.540Z,4.88
2019-01-12T01:26:41.727Z,4.89
2019-01-12T01:27:41.905Z,4.91
2019-01-12T01:28:42.082Z,5.03
2019-01-12T01:29:42.274Z,4.94
2019-01-12T01:30:43.016Z,4.73
2019-01-12T01:31:42.643Z,4.82
2019-01-12T01:32:42.815Z,4.70
2019-01-12T01:33:42.995Z,4.78
2019-01-12T01:34:43.174Z,4.85
2019-01-12T01:35:43.356Z,4.80
2019-01-12T01:36:43.537Z,4.78
2019-01-12T01:37:43.717Z,4.77
2019-01-12T01:38:43.892Z,4.86
2019-01-12T01:39:44.081Z,4.82
2019-01-12T01:40:44.258Z,4.78
2019-01-12T01:41:44.460Z,4.73
2019-01-12T01:42:44.622Z,4.78
2019-01-12T01:43:44.799Z,4.63
2019-01-12T01:44:44.977Z,4.78
2019-01-12T01:45:45.157Z,4.69
2019-01-12T01:46:45.343Z,4.62
2019-01-12T01:47:45.527Z,4.63
2019-01-12T01:48:45.711Z,4.70
2019-01-12T01:49:45.900Z,4.55
2019-01-12T01:50:46.081Z,4.73
2019-01-12T01:51:46.298Z,4.70
2019-01-12T01:52:46.437Z,4.72
2019-01-12T01:53:46.652Z,4.58
2019-01-12T01:54:52.825Z,4.72
2019-01-12T01:55:47.011Z,4.65
2019-01-12T01:56:47.210Z,4.70
2019-01-12T01:57:47.368Z,4.60
2019-01-12T01:58:47.533Z,4.67
2019-01-12T01:59:47.749Z,4.73
2019-01-12T02:00:47.907Z,4.72
2019-01-12T02:01:48.086Z,4.77
2019-01-12T02:02:48.274Z,4.60
2019-01-12T02:03:48.485Z,4.73
2019-01-12T02:04:48.653Z,4.67
2019-01-12T02:05:48.833Z,4.72
2019-01-12T02:06:49.011Z,4.67
2019-01-12T02:07:49.189Z,4.67
2019-01-12T02:08:49.373Z,4.69
2019-01-12T02:09:49.552Z,4.65
2019-01-12T02:10:49.744Z,4.75
2019-01-12T02:11:49.927Z,4.72
2019-01-12T02:12:50.104Z,4.63
2019-01-12T02:13:50.288Z,4.67
2019-01-12T02:14:50.452Z,4.70
2019-01-12T02:15:50.635Z,4.72
2019-01-12T02:16:50.814Z,4.73
2019-01-12T02:17:50.990Z,4.77
2019-01-12T02:18:51.171Z,4.66
2019-01-12T02:19:51.350Z,4.78
2019-01-12T02:20:51.526Z,4.86
2019-01-12T02:21:51.725Z,4.70
2019-01-12T02:22:51.905Z,4.65
2019-01-12T02:23:52.089Z,4.70
2019-01-12T02:24:52.264Z,4.80
2019-01-12T02:25:52.458Z,4.67
2019-01-12T02:26:52.639Z,4.70
2019-01-12T02:27:52.833Z,4.65
2019-01-12T02:28:52.998Z,4.73
2019-01-12T02:29:53.179Z,4.72
2019-01-12T02:30:53.380Z,4.69
2019-01-12T02:31:53.545Z,4.82
2019-01-12T02:32:53.727Z,4.73
2019-01-12T02:33:53.907Z,4.78
2019-01-12T02:34:54.091Z,4.82
2019-01-12T02:35:54.267Z,4.78
2019-01-12T02:36:54.449Z,4.82
2019-01-12T02:37:54.623Z,4.77
2019-01-12T02:38:54.800Z,4.84
2019-01-12T02:39:54.987Z,4.82
2019-01-12T02:40:55.169Z,4.72
2019-01-12T02:41:55.347Z,4.77
2019-01-12T02:42:55.527Z,4.80
2019-01-12T02:43:55.714Z,4.78
2019-01-12T02:44:55.889Z,4.82
2019-01-12T02:45:56.139Z,4.84
2019-01-12T02:46:56.258Z,4.85
2019-01-12T02:47:56.438Z,4.88
2019-01-12T02:48:56.619Z,4.86
2019-01-12T02:49:56.808Z,4.88
2019-01-12T02:50:56.996Z,4.89
2019-01-12T02:51:57.177Z,4.92
2019-01-12T02:52:57.360Z,4.85
2019-01-12T02:53:57.557Z,4.89
2019-01-12T02:54:57.741Z,4.97
2019-01-12T02:55:57.911Z,4.96
2019-01-12T02:56:58.092Z,4.91
2019-01-12T02:57:58.276Z,4.89
2019-01-12T02:58:58.450Z,4.88
2019-01-12T02:59:58.630Z,4.94
2019-01-12T03:00:58.809Z,5.02
2019-01-12T03:01:58.993Z,4.92
2019-01-12T03:02:59.174Z,4.89
2019-01-12T03:03:59.361Z,4.99
2019-01-12T03:05:00.260Z,4.94
2019-01-12T03:05:59.671Z,4.92
2019-01-12T03:06:59.850Z,4.97
2019-01-12T03:08:00.037Z,4.96
2019-01-12T03:09:00.216Z,4.96
2019-01-12T03:10:00.398Z,5.02
2019-01-12T03:11:00.583Z,4.94
2019-01-12T03:12:00.761Z,5.04
2019-01-12T03:13:00.939Z,4.96
2019-01-12T03:14:01.122Z,5.07
2019-01-12T03:15:01.299Z,4.99
2019-01-12T03:16:01.484Z,5.03
2019-01-12T03:17:01.659Z,5.06
2019-01-12T03:18:01.844Z,5.06
2019-01-12T03:19:02.030Z,5.02
2019-01-12T03:20:02.205Z,4.94
2019-01-12T03:21:02.385Z,4.97
2019-01-12T03:22:02.562Z,4.92
2019-01-12T03:23:02.747Z,4.96
2019-01-12T03:24:02.932Z,4.92
2019-01-12T03:25:03.119Z,4.91
2019-01-12T03:26:03.296Z,4.89
2019-01-12T03:27:03.476Z,4.89
2019-01-12T03:28:03.655Z,4.89
2019-01-12T03:29:03.840Z,4.84
2019-01-12T03:30:04.024Z,4.96
2019-01-12T03:31:04.201Z,4.94
2019-01-12T03:32:04.382Z,4.92
2019-01-12T03:33:04.571Z,4.94
2019-01-12T03:34:04.760Z,4.91
2019-01-12T03:35:04.933Z,4.89
2019-01-12T03:36:05.140Z,4.97
2019-01-12T03:37:05.293Z,4.91
2019-01-12T03:38:05.477Z,4.86
2019-01-12T03:39:05.648Z,4.80
2019-01-12T03:40:05.853Z,4.92
2019-01-12T03:41:05.997Z,4.96
2019-01-12T03:42:06.181Z,4.89
2019-01-12T03:43:06.369Z,4.92
2019-01-12T03:44:06.542Z,4.94
2019-01-12T03:45:06.723Z,4.96
2019-01-12T03:46:06.914Z,5.06
2019-01-12T03:47:07.083Z,5.06
2019-01-12T03:48:07.261Z,5.04
2019-01-12T03:49:07.460Z,5.04
2019-01-12T03:50:07.617Z,5.06
2019-01-12T03:51:07.790Z,5.04
2019-01-12T03:52:08.025Z,4.99
2019-01-12T03:53:08.146Z,5.04
2019-01-12T03:54:08.329Z,5.04
2019-01-12T03:55:08.515Z,5.09
2019-01-12T03:56:08.683Z,4.99
2019-01-12T03:57:08.869Z,5.00
2019-01-12T03:58:09.063Z,5.10
2019-01-12T03:59:09.216Z,5.07
2019-01-12T04:00:09.391Z,5.06
2019-01-12T04:01:09.571Z,5.07
2019-01-12T04:02:09.754Z,5.02
2019-01-12T04:03:09.935Z,5.04
2019-01-12T04:04:10.133Z,5.12
2019-01-12T04:05:10.302Z,5.02
2019-01-12T04:06:10.479Z,5.10
2019-01-12T04:07:10.657Z,5.09
2019-01-12T04:08:10.837Z,5.04
2019-01-12T04:09:11.082Z,5.15
2019-01-12T04:10:11.204Z,5.07
2019-01-12T04:11:11.401Z,5.20
2019-01-12T04:12:11.578Z,5.09
2019-01-12T04:13:11.737Z,5.25
2019-01-12T04:14:11.937Z,5.15
2019-01-12T04:15:12.126Z,5.22
2019-01-12T04:16:12.308Z,5.21
2019-01-12T04:17:12.478Z,5.24
2019-01-12T04:18:12.677Z,5.22
2019-01-12T04:19:12.848Z,5.24
2019-01-12T04:20:13.028Z,5.25
2019-01-12T04:21:13.207Z,5.22
2019-01-12T04:22:13.392Z,5.25
2019-01-12T04:23:13.560Z,5.33
2019-01-12T04:24:13.764Z,5.31
2019-01-12T04:25:13.934Z,5.35
2019-01-12T04:26:14.121Z,5.22
2019-01-12T04:27:14.299Z,5.24
2019-01-12T04:28:14.485Z,5.21
2019-01-12T04:29:14.666Z,5.22
2019-01-12T04:30:14.834Z,5.27
2019-01-12T04:31:15.013Z,5.22
2019-01-12T04:32:15.238Z,5.27
2019-01-12T04:33:15.421Z,5.17
2019-01-12T04:34:15.604Z,5.28
2019-01-12T04:35:15.794Z,5.25
2019-01-12T04:36:15.982Z,5.30
2019-01-12T04:37:16.157Z,5.25
2019-01-12T04:38:16.337Z,5.21
2019-01-12T04:39:16.518Z,5.31
2019-01-12T04:40:16.687Z,5.24
2019-01-12T04:41:16.881Z,5.24
2019-01-12T04:42:17.058Z,5.25
2019-01-12T04:43:17.230Z,5.24
2019-01-12T04:44:17.412Z,5.24
2019-01-12T04:45:17.604Z,5.28
2019-01-12T04:46:17.775Z,5.24
2019-01-12T04:47:17.955Z,5.25
2019-01-12T04:48:19.681Z,5.20
2019-01-12T04:49:18.316Z,5.22
2019-01-12T04:50:18.501Z,5.31
2019-01-12T04:51:18.677Z,5.28
2019-01-12T04:52:18.853Z,5.18
2019-01-12T04:53:19.034Z,5.25
2019-01-12T04:54:19.210Z,5.21
2019-01-12T04:55:19.390Z,5.21
2019-01-12T04:56:19.576Z,5.17
2019-01-12T04:57:19.756Z,5.31
2019-01-12T04:58:19.939Z,5.36
2019-01-12T04:59:20.121Z,5.22
2019-01-12T05:00:20.304Z,5.31
2019-01-12T05:01:20.492Z,5.22
2019-01-12T05:02:20.684Z,5.12
2019-01-12T05:03:20.860Z,5.15
2019-01-12T05:04:21.039Z,5.17
2019-01-12T05:05:21.218Z,5.17
2019-01-12T05:06:21.404Z,5.15
2019-01-12T05:07:21.591Z,5.21
2019-01-12T05:08:21.764Z,5.18
2019-01-12T05:09:21.944Z,5.25
2019-01-12T05:10:22.135Z,5.24
2019-01-12T05:11:22.315Z,5.25
2019-01-12T05:12:22.493Z,5.33
2019-01-12T05:13:22.676Z,5.25
2019-01-12T05:14:22.858Z,5.39
2019-01-12T05:15:23.039Z,5.27
2019-01-12T05:16:23.226Z,5.28
2019-01-12T05:17:23.398Z,5.43
2019-01-12T05:18:23.579Z,5.35
2019-01-12T05:19:23.767Z,5.35
2019-01-12T05:20:23.940Z,5.43
2019-01-12T05:21:24.121Z,5.46
2019-01-12T05:22:24.313Z,5.45
2019-01-12T05:23:24.491Z,5.36
2019-01-12T05:24:24.672Z,5.42
2019-01-12T05:25:24.855Z,5.40
2019-01-12T05:26:25.040Z,5.35
2019-01-12T05:27:25.216Z,5.39
2019-01-12T05:28:25.386Z,5.38
2019-01-12T05:29:25.578Z,5.36
2019-01-12T05:30:25.759Z,5.30
2019-01-12T05:31:25.936Z,5.35
2019-01-12T05:32:26.118Z,5.33
2019-01-12T05:33:26.295Z,5.46
2019-01-12T05:34:26.479Z,5.36
2019-01-12T05:35:26.689Z,5.36
2019-01-12T05:36:26.841Z,5.42
2019-01-12T05:37:27.023Z,5.35
2019-01-12T05:38:27.211Z,5.22
2019-01-12T05:39:27.386Z,5.28
2019-01-12T05:40:27.586Z,5.28
2019-01-12T05:41:27.747Z,5.21
2019-01-12T05:42:27.933Z,5.22
2019-01-12T05:43:28.114Z,5.21
2019-01-12T05:44:28.300Z,5.17
2019-01-12T05:45:28.482Z,5.27
2019-01-12T05:46:28.689Z,5.22
2019-01-12T05:47:28.887Z,5.22
2019-01-12T05:48:29.066Z,5.17
2019-01-12T05:49:29.245Z,5.17
2019-01-12T05:50:29.434Z,5.03
2019-01-12T05:51:29.655Z,5.06
2019-01-12T05:52:29.822Z,5.06
2019-01-12T05:53:29.998Z,5.12
2019-01-12T05:54:30.179Z,5.03
2019-01-12T05:55:30.360Z,5.13
2019-01-12T05:56:30.549Z,5.06
2019-01-12T05:57:30.732Z,5.09
2019-01-12T05:58:30.912Z,5.07
2019-01-12T05:59:31.094Z,5.15
2019-01-12T06:00:31.278Z,5.06
2019-01-12T06:01:31.454Z,5.21
2019-01-12T06:02:31.638Z,5.13
2019-01-12T06:03:32.198Z,5.15
2019-01-12T06:04:32.012Z,5.15
2019-01-12T06:05:32.186Z,5.21
2019-01-12T06:06:32.370Z,5.28
2019-01-12T06:07:32.553Z,5.31
2019-01-12T06:08:32.747Z,5.20
2019-01-12T06:09:32.925Z,5.24
2019-01-12T06:10:33.115Z,5.30
2019-01-12T06:11:33.296Z,5.24
2019-01-12T06:12:33.503Z,5.21
2019-01-12T06:13:33.670Z,5.27
2019-01-12T06:14:33.848Z,5.27
2019-01-12T06:15:34.030Z,5.13
2019-01-12T06:16:34.206Z,5.20
2019-01-12T06:17:34.404Z,5.30
2019-01-12T06:18:34.597Z,5.31
2019-01-12T06:19:34.753Z,5.30
2019-01-12T06:20:34.940Z,5.28
2019-01-12T06:21:35.119Z,5.31
2019-01-12T06:22:35.302Z,5.30
2019-01-12T06:23:35.481Z,5.31
2019-01-12T06:24:35.661Z,5.36
2019-01-12T06:25:35.846Z,5.22
2019-01-12T06:26:36.021Z,5.36
2019-01-12T06:27:36.202Z,5.28
2019-01-12T06:28:36.386Z,5.21
2019-01-12T06:29:36.565Z,5.25
2019-01-12T06:30:36.750Z,5.33
2019-01-12T06:31:36.922Z,5.27
2019-01-12T06:32:37.110Z,5.25
2019-01-12T06:33:37.303Z,5.28
2019-01-12T06:34:37.468Z,5.24
2019-01-12T06:35:37.652Z,5.39
2019-01-12T06:36:37.831Z,5.33
2019-01-12T06:37:38.011Z,5.39
2019-01-12T06:38:38.191Z,5.28
2019-01-12T06:39:38.376Z,5.35
2019-01-12T06:40:38.560Z,5.25
2019-01-12T06:41:38.737Z,5.36
2019-01-12T06:42:38.922Z,5.27
2019-01-12T06:43:39.100Z,5.38
2019-01-12T06:44:39.276Z,5.38
2019-01-12T06:45:39.455Z,5.40
2019-01-12T06:46:39.646Z,5.36
2019-01-12T06:47:39.831Z,5.46
2019-01-12T06:48:40.009Z,5.36
2019-01-12T06:49:40.187Z,5.40
2019-01-12T06:50:40.365Z,5.45
2019-01-12T06:51:40.558Z,5.42
2019-01-12T06:52:40.738Z,5.40
2019-01-12T06:53:40.915Z,5.40
2019-01-12T06:54:41.104Z,5.45
2019-01-12T06:55:41.283Z,5.43
2019-01-12T06:56:41.462Z,5.42
2019-01-12T06:57:41.643Z,5.39
2019-01-12T06:58:41.821Z,5.36
2019-01-12T06:59:42.011Z,5.45
2019-01-12T07:00:42.188Z,5.45
2019-01-12T07:01:42.365Z,5.40
2019-01-12T07:02:42.546Z,5.43
2019-01-12T07:03:42.721Z,5.45
2019-01-12T07:04:42.912Z,5.51
2019-01-12T07:05:43.100Z,5.48
2019-01-12T07:06:43.281Z,5.46
2019-01-12T07:07:43.473Z,5.43
2019-01-12T07:08:43.655Z,5.54
2019-01-12T07:09:43.832Z,5.57
2019-01-12T07:10:44.020Z,5.49
2019-01-12T07:11:44.198Z,5.45
2019-01-12T07:12:44.374Z,5.49
2019-01-12T07:13:44.564Z,5.48
2019-01-12T07:14:44.745Z,5.43
2019-01-12T07:15:44.929Z,5.42
2019-01-12T07:16:45.108Z,5.46
2019-01-12T07:17:45.288Z,5.54
2019-01-12T07:18:45.522Z,5.43
2019-01-12T07:19:45.655Z,5.40
2019-01-12T07:20:45.846Z,5.43
2019-01-12T07:21:46.028Z,5.51
2019-01-12T07:22:46.462Z,5.57
2019-01-12T07:23:46.400Z,5.40
2019-01-12T07:24:46.581Z,5.57
2019-01-12T07:25:46.767Z,5.51
2019-01-12T07:26:46.953Z,5.42
2019-01-12T07:27:47.130Z,5.42
2019-01-12T07:28:47.312Z,5.46
2019-01-12T07:29:47.510Z,5.64
2019-01-12T07:30:47.698Z,5.54
2019-01-12T07:31:47.878Z,5.56
2019-01-12T07:32:48.083Z,5.56
2019-01-12T07:33:48.267Z,5.56
2019-01-12T07:34:48.445Z,5.60
2019-01-12T07:35:48.623Z,5.60
2019-01-12T07:36:48.814Z,5.56
2019-01-12T07:37:48.992Z,5.60
2019-01-12T07:38:49.181Z,5.63
2019-01-12T07:39:49.368Z,5.63
2019-01-12T07:40:49.548Z,5.64
2019-01-12T07:41:49.731Z,5.65
2019-01-12T07:42:49.909Z,5.53
2019-01-12T07:43:50.093Z,5.64
2019-01-12T07:44:50.268Z,5.68
2019-01-12T07:45:50.456Z,5.58
2019-01-12T07:46:50.633Z,5.51
2019-01-12T07:47:50.816Z,5.57
2019-01-12T07:48:50.999Z,5.60
2019-01-12T07:49:51.181Z,5.63
2019-01-12T07:50:51.372Z,5.57
2019-01-12T07:51:51.548Z,5.65
2019-01-12T07:52:51.732Z,5.60
2019-01-12T07:53:51.908Z,5.57
2019-01-12T07:54:52.097Z,5.56
2019-01-12T07:55:52.278Z,5.57
2019-01-12T07:56:52.459Z,5.57
2019-01-12T07:57:52.637Z,5.63
2019-01-12T07:58:52.817Z,5.58
2019-01-12T07:59:53.002Z,5.58
2019-01-12T08:00:53.180Z,5.67
2019-01-12T08:01:53.363Z,5.60
2019-01-12T08:02:53.553Z,5.60
2019-01-12T08:03:53.726Z,5.65
2019-01-12T08:04:53.909Z,5.67
2019-01-12T08:05:54.088Z,5.65
2019-01-12T08:06:54.264Z,5.75
2019-01-12T08:07:54.444Z,5.67
2019-01-12T08:08:54.627Z,5.89
2019-01-12T08:09:54.811Z,5.85
2019-01-12T08:10:54.992Z,5.85
2019-01-12T08:11:55.176Z,5.86
2019-01-12T08:12:55.355Z,5.85
2019-01-12T08:13:55.533Z,5.90
2019-01-12T08:14:55.717Z,5.89
2019-01-12T08:15:55.902Z,5.82
2019-01-12T08:16:56.083Z,5.86
2019-01-12T08:17:56.269Z,5.67
2019-01-12T08:18:56.444Z,5.75
2019-01-12T08:19:56.624Z,5.65
2019-01-12T08:20:56.801Z,5.68
2019-01-12T08:21:56.986Z,5.75
2019-01-12T08:22:57.175Z,5.83
2019-01-12T08:23:57.358Z,5.85
2019-01-12T08:24:57.531Z,5.83
2019-01-12T08:25:57.710Z,5.91
2019-01-12T08:26:57.913Z,5.93
2019-01-12T08:27:58.099Z,5.86
2019-01-12T08:28:58.271Z,5.97
2019-01-12T08:29:58.460Z,6.11
2019-01-12T08:30:58.630Z,6.12
2019-01-12T08:31:58.827Z,6.01
2019-01-12T08:32:59.013Z,6.19
2019-01-12T08:33:59.196Z,6.31
2019-01-12T08:34:59.380Z,6.33
2019-01-12T08:35:59.560Z,6.30
2019-01-12T08:36:59.733Z,6.25
2019-01-12T08:37:59.936Z,6.27
2019-01-12T08:39:00.104Z,6.38
2019-01-12T08:40:00.291Z,6.51
2019-01-12T08:41:00.470Z,6.46
2019-01-12T08:42:00.655Z,6.44
2019-01-12T08:43:00.842Z,6.40
2019-01-12T08:44:01.029Z,6.48
2019-01-12T08:45:01.214Z,6.41
2019-01-12T08:46:01.403Z,6.71
2019-01-12T08:47:01.582Z,6.71
2019-01-12T08:48:01.761Z,6.66
2019-01-12T08:49:01.944Z,6.74
2019-01-12T08:50:02.129Z,6.79
2019-01-12T08:51:02.314Z,6.77
2019-01-12T08:52:02.505Z,6.76
2019-01-12T08:53:02.693Z,6.61
2019-01-12T08:54:02.877Z,6.76
2019-01-12T08:55:03.059Z,6.73
2019-01-12T08:56:03.237Z,6.67
2019-01-12T08:57:03.422Z,6.56
2019-01-12T08:58:03.605Z,6.55
2019-01-12T08:59:03.788Z,6.46
2019-01-12T09:00:03.971Z,6.40
2019-01-12T09:01:04.152Z,6.46
2019-01-12T09:02:04.334Z,6.52
2019-01-12T09:03:04.510Z,6.33
2019-01-12T09:04:04.700Z,6.36
2019-01-12T09:05:04.887Z,6.38
2019-01-12T09:06:05.073Z,6.38
2019-01-12T09:07:05.251Z,6.33
2019-01-12T09:08:05.432Z,6.30
2019-01-12T09:09:05.618Z,6.31
2019-01-12T09:10:05.802Z,6.19
2019-01-12T09:11:05.978Z,6.14
2019-01-12T09:12:06.175Z,6.08
2019-01-12T09:13:06.358Z,6.17
2019-01-12T09:14:06.540Z,6.19
2019-01-12T09:15:06.750Z,6.18
2019-01-12T09:16:06.937Z,6.17
2019-01-12T09:17:07.128Z,6.14
2019-01-12T09:18:07.328Z,6.14
2019-01-12T09:19:07.510Z,6.08
2019-01-12T09:20:07.692Z,6.08
2019-01-12T09:21:07.876Z,6.06
2019-01-12T09:22:08.057Z,6.04
2019-01-12T09:23:08.242Z,6.06
2019-01-12T09:24:08.455Z,6.04
2019-01-12T09:25:08.613Z,6.09
2019-01-12T09:26:08.792Z,6.14
2019-01-12T09:27:08.981Z,6.09
2019-01-12T09:28:09.164Z,6.08
2019-01-12T09:29:09.341Z,6.06
2019-01-12T09:30:09.522Z,6.09
2019-01-12T09:31:09.705Z,5.97
2019-01-12T09:32:09.884Z,6.15
2019-01-12T09:33:10.066Z,6.14
2019-01-12T09:34:10.255Z,6.12
2019-01-12T09:35:10.436Z,6.06
2019-01-12T09:36:10.620Z,6.19
2019-01-12T09:37:10.811Z,6.28
2019-01-12T09:38:10.983Z,6.18
2019-01-12T09:39:11.163Z,6.30
2019-01-12T09:40:11.342Z,6.28
2019-01-12T09:41:11.528Z,6.30
2019-01-12T09:42:11.706Z,6.34
2019-01-12T09:43:11.883Z,6.37
2019-01-12T09:44:12.076Z,6.31
2019-01-12T09:45:12.272Z,6.40
2019-01-12T09:46:12.434Z,6.38
2019-01-12T09:47:13.153Z,6.31
2019-01-12T09:48:12.824Z,6.34
2019-01-12T09:49:13.036Z,6.38
2019-01-12T09:50:13.228Z,6.22
2019-01-12T09:51:13.409Z,6.36
2019-01-12T09:52:13.600Z,6.31
2019-01-12T09:53:13.779Z,6.33
2019-01-12T09:54:13.986Z,6.46
2019-01-12T09:55:14.159Z,6.43
2019-01-12T09:56:14.353Z,6.36
2019-01-12T09:57:14.534Z,6.37
2019-01-12T09:58:14.714Z,6.48
2019-01-12T09:59:14.891Z,6.52
2019-01-12T10:00:15.082Z,6.56
2019-01-12T10:01:15.257Z,6.66
2019-01-12T10:02:15.471Z,6.74
2019-01-12T10:03:15.626Z,6.79
2019-01-12T10:04:15.809Z,6.77
2019-01-12T10:05:16.000Z,6.88
2019-01-12T10:06:16.192Z,6.81
2019-01-12T10:07:16.369Z,6.91
2019-01-12T10:08:16.559Z,7.05
2019-01-12T10:09:16.750Z,7.34
2019-01-12T10:10:16.932Z,7.13
2019-01-12T10:11:17.117Z,7.24
2019-01-12T10:12:17.306Z,7.21
2019-01-12T10:13:17.495Z,7.09
2019-01-12T10:14:17.664Z,6.89
2019-01-12T10:15:17.853Z,6.76
2019-01-12T10:16:18.043Z,6.64
2019-01-12T10:17:18.235Z,6.66
2019-01-12T10:18:18.409Z,6.61
2019-01-12T10:19:18.591Z,6.55
2019-01-12T10:20:18.769Z,6.51
2019-01-12T10:21:18.949Z,6.61
2019-01-12T10:22:19.139Z,6.55
2019-01-12T10:23:19.317Z,6.58
2019-01-12T10:24:19.512Z,6.41
2019-01-12T10:25:19.714Z,6.49
2019-01-12T10:26:19.873Z,6.38
2019-01-12T10:27:20.048Z,6.44
2019-01-12T10:28:20.241Z,6.46
2019-01-12T10:29:20.430Z,6.58
2019-01-12T10:30:20.625Z,6.48
2019-01-12T10:31:20.797Z,6.40
2019-01-12T10:32:20.988Z,6.38
2019-01-12T10:33:21.168Z,6.28
2019-01-12T10:34:21.354Z,6.22
2019-01-12T10:35:21.530Z,6.25
2019-01-12T10:36:21.714Z,6.28
2019-01-12T10:37:21.897Z,6.19
2019-01-12T10:38:22.077Z,6.17
2019-01-12T10:39:22.262Z,6.19
2019-01-12T10:40:22.451Z,6.25
2019-01-12T10:41:22.642Z,6.03
2019-01-12T10:42:22.828Z,6.11
2019-01-12T10:43:23.010Z,6.08
2019-01-12T10:44:23.191Z,6.14
2019-01-12T10:45:23.381Z,6.09
2019-01-12T10:46:23.559Z,6.14
2019-01-12T10:47:23.767Z,6.11
2019-01-12T10:48:23.924Z,6.22
2019-01-12T10:49:24.105Z,6.15
2019-01-12T10:50:24.304Z,6.18
2019-01-12T10:51:24.471Z,6.19
2019-01-12T10:52:24.674Z,6.01
2019-01-12T10:53:24.840Z,6.03
2019-01-12T10:54:25.024Z,5.97
2019-01-12T10:55:25.231Z,6.06
2019-01-12T10:56:25.406Z,6.15
2019-01-12T10:57:25.592Z,6.14
2019-01-12T10:58:25.784Z,6.11
2019-01-12T10:59:25.969Z,6.09
2019-01-12T11:00:26.149Z,6.06
2019-01-12T11:01:26.333Z,6.03
2019-01-12T11:02:26.526Z,6.04
2019-01-12T11:03:26.706Z,6.08
2019-01-12T11:04:26.890Z,6.01
2019-01-12T11:05:27.072Z,6.06
2019-01-12T11:06:27.263Z,6.09
2019-01-12T11:07:27.450Z,6.09
2019-01-12T11:08:27.632Z,6.14
2019-01-12T11:09:27.826Z,6.12
2019-01-12T11:10:28.022Z,6.08
2019-01-12T11:11:28.206Z,6.04
2019-01-12T11:12:28.381Z,6.17
2019-01-12T11:13:28.564Z,6.21
2019-01-12T11:14:28.750Z,6.14
2019-01-12T11:15:28.927Z,6.19
2019-01-12T11:16:29.111Z,6.22
2019-01-12T11:17:29.291Z,6.19
2019-01-12T11:18:29.480Z,6.09
2019-01-12T11:19:29.659Z,6.06
2019-01-12T11:20:29.844Z,6.03
2019-01-12T11:21:30.028Z,6.01
2019-01-12T11:22:30.211Z,5.96
2019-01-12T11:23:30.404Z,5.97
2019-01-12T11:24:30.589Z,6.09
2019-01-12T11:25:30.767Z,5.97
2019-01-12T11:26:30.954Z,5.94
2019-01-12T11:27:31.141Z,6.03
2019-01-12T11:28:31.323Z,5.97
2019-01-12T11:29:31.505Z,6.04
2019-01-12T11:30:31.700Z,5.96
2019-01-12T11:31:31.882Z,6.00
2019-01-12T11:32:32.058Z,6.08
2019-01-12T11:33:32.239Z,5.99
2019-01-12T11:34:32.438Z,6.09
2019-01-12T11:35:32.617Z,6.03
2019-01-12T11:36:32.796Z,6.03
2019-01-12T11:37:32.980Z,5.96
2019-01-12T11:38:33.164Z,6.01
2019-01-12T11:39:33.369Z,6.03
2019-01-12T11:40:33.518Z,6.06
2019-01-12T11:41:33.706Z,5.91
2019-01-12T11:42:33.879Z,5.93
2019-01-12T11:43:34.065Z,5.86
2019-01-12T11:44:34.248Z,5.89
2019-01-12T11:45:34.438Z,5.85
2019-01-12T11:46:34.620Z,5.83
2019-01-12T11:47:34.800Z,5.81
2019-01-12T11:48:34.977Z,5.79
2019-01-12T11:49:35.173Z,5.71
2019-01-12T11:50:35.344Z,5.72
2019-01-12T11:51:35.532Z,5.79
2019-01-12T11:52:35.715Z,5.85
2019-01-12T11:53:35.895Z,5.76
2019-01-12T11:54:36.078Z,5.63
2019-01-12T11:55:36.257Z,5.65
2019-01-12T11:56:36.433Z,5.65
2019-01-12T11:57:36.608Z,5.58
2019-01-12T11:58:36.787Z,5.61
2019-01-12T11:59:36.969Z,5.54
2019-01-12T12:00:37.151Z,5.54
2019-01-12T12:01:37.337Z,5.54
2019-01-12T12:02:37.783Z,5.54
2019-01-12T12:03:37.712Z,5.54
2019-01-12T12:04:37.875Z,5.48
2019-01-12T12:05:38.064Z,5.56
2019-01-12T12:06:38.249Z,5.51
2019-01-12T12:07:38.431Z,5.60
2019-01-12T12:08:38.606Z,5.48
2019-01-12T12:09:38.790Z,5.63
2019-01-12T12:10:38.969Z,5.57
2019-01-12T12:11:39.148Z,5.51
2019-01-12T12:12:39.341Z,5.51
2019-01-12T12:13:39.518Z,5.56
2019-01-12T12:14:39.699Z,5.56
2019-01-12T12:15:39.885Z,5.56
2019-01-12T12:16:40.064Z,5.48
2019-01-12T12:17:40.269Z,5.48
2019-01-12T12:18:40.435Z,5.43
2019-01-12T12:19:40.612Z,5.39
2019-01-12T12:20:40.796Z,5.39
2019-01-12T12:21:40.987Z,5.48
2019-01-12T12:22:41.169Z,5.35
2019-01-12T12:23:41.345Z,5.46
2019-01-12T12:24:41.530Z,5.48
2019-01-12T12:25:41.711Z,5.42
2019-01-12T12:26:41.896Z,5.49
2019-01-12T12:27:42.077Z,5.42
2019-01-12T12:28:42.261Z,5.35
2019-01-12T12:29:42.441Z,5.35
2019-01-12T12:30:42.623Z,5.35
2019-01-12T12:31:42.805Z,5.40
2019-01-12T12:32:43.009Z,5.39
2019-01-12T12:33:43.169Z,5.36
2019-01-12T12:34:43.352Z,5.39
2019-01-12T12:35:43.545Z,5.39
2019-01-12T12:36:43.729Z,5.39
2019-01-12T12:37:43.921Z,5.25
2019-01-12T12:38:44.108Z,5.31
2019-01-12T12:39:44.281Z,5.35
2019-01-12T12:40:44.464Z,5.31
2019-01-12T12:41:44.647Z,5.25
2019-01-12T12:42:44.828Z,5.38
2019-01-12T12:43:45.011Z,5.33
2019-01-12T12:44:45.193Z,5.35
2019-01-12T12:45:45.374Z,5.39
2019-01-12T12:46:45.557Z,5.27
2019-01-12T12:47:45.739Z,5.38
2019-01-12T12:48:45.929Z,5.36
2019-01-12T12:49:46.104Z,5.22
2019-01-12T12:50:46.292Z,5.24
2019-01-12T12:51:46.476Z,5.38
2019-01-12T12:52:46.665Z,5.25
2019-01-12T12:53:46.857Z,5.28
2019-01-12T12:54:47.040Z,5.39
2019-01-12T12:55:47.221Z,5.33
2019-01-12T12:56:47.406Z,5.25
2019-01-12T12:57:47.587Z,5.35
2019-01-12T12:58:47.811Z,5.38
2019-01-12T12:59:47.944Z,5.27
2019-01-12T13:00:48.119Z,5.21
2019-01-12T13:01:48.305Z,5.18
2019-01-12T13:02:48.480Z,5.31
2019-01-12T13:03:48.661Z,5.21
2019-01-12T13:04:48.844Z,5.24
2019-01-12T13:05:49.021Z,5.31
2019-01-12T13:06:49.213Z,5.21
2019-01-12T13:07:49.398Z,5.39
2019-01-12T13:08:49.596Z,5.39
2019-01-12T13:09:49.778Z,5.35
2019-01-12T13:10:49.967Z,5.25
2019-01-12T13:11:50.157Z,5.30
2019-01-12T13:12:50.350Z,5.31
2019-01-12T13:13:50.534Z,5.31
2019-01-12T13:14:50.721Z,5.35
2019-01-12T13:15:50.889Z,5.31
2019-01-12T13:16:51.091Z,5.25
2019-01-12T13:17:51.273Z,5.20
2019-01-12T13:18:51.454Z,5.35
2019-01-12T13:19:51.642Z,5.22
2019-01-12T13:20:51.827Z,5.27